釧路空港の過去48時間の天気

釧路空港 (Kushiro)

現在時刻: 1/23 17:16 JST (1/23 08:16 UTC) 以下の時間は現地時間です。

過去48時間のMETAR気象情報
時間 風向 風速(m/s) 視程 気温(℃) 湿度(%) 気圧(hPa) 天気現象
23 17:00 北東 3 10km以上 -2 86 999 弱いしゅう雪
23 16:32 北東 4 5,000m -2 86 998 弱いしゅう雪
23 16:12 北東 3 4,900m -2 86 998 弱いしゅう雪
23 16:00 北東 4 5,000m -2 86 998 弱いしゅう雪
23 15:00 東北東 5 10km以上 -2 86 999 弱いしゅう雪
23 14:00 北東 7 8,000m -1 80 999 弱いしゅう雪
23 13:00 東北東 6 5,000m -1 80 1000 弱いしゅう雪
23 12:37 北東 4 3,200m -2 93 1001 弱いしゅう雪
23 12:17 北東 5 3,100m -2 86 1002 弱いしゅう雪
23 12:00 北北東 4 6,000m -2 86 1002 弱いしゅう雪
23 11:00 北北東 5 10km以上 -3 80 1004 弱いしゅう雪
23 10:00 北北東 5 10km以上 -3 74 1006
23 09:00 北北東 5 10km以上 -4 68 1007
23 08:00 北北東 5 10km以上 -5 63 1009
23 07:00 5 10km以上 -6 58 1010
23 06:45 北北東 4 10km以上 -6 58 1010
22 20:00 北西 2 10km以上 -8 57 1018
22 19:00 西 2 10km以上 -7 45 1018
22 18:00 西 2 10km以上 -6 41 1018
22 17:00 南西 3 10km以上 -6 41 1018
22 16:00 西南西 4 10km以上 -5 38 1017
22 15:00 西南西 5 10km以上 -4 33 1017
22 14:00 南西 6 10km以上 -4 30 1017
22 13:00 南西 6 10km以上 -4 36 1017
22 12:00 南西 6 10km以上 -5 38 1018
22 11:00 南西 6 10km以上 -5 38 1018
22 10:00 南西 6 10km以上 -6 41 1018
22 09:00 4 10km以上 -7 41 1019
22 08:00 南西 3 10km以上 -9 44 1018
22 07:00 南南西 2 10km以上 -11 52 1018
22 06:45 南南西 3 10km以上 -10 48 1018
RJCK 230800Z 05006KT 010V080 9999 -SHSN FEW010 SCT015 BKN020 M02/M04 Q0999
RJCK 230732Z 05008KT 020V090 5000 -SHSN FEW005 SCT010 BKN018 M02/M04 Q0998 RMK 1ST005 3ST010 7ST018 A2948
RJCK 230712Z 04006KT 4900 -SHSN FEW005 SCT010 BKN018 M02/M04 Q0998 RMK 1ST005 3ST010 7ST018 A2949
RJCK 230700Z 04008KT 5000 -SHSN FEW005 SCT012 BKN018 M02/M04 Q0998
RJCK 230600Z 06009KT 9999 -SHSN FEW010 SCT012 BKN018 M02/M04 Q0999
RJCK 230500Z 04013KT 8000 -SHSN FEW008 SCT012 BKN020 M01/M04 Q0999
RJCK 230400Z 06011KT 030V090 5000 -SHSN FEW006 SCT009 BKN015 M01/M04 Q1000
RJCK 230337Z 04008KT 3200 -SHSN FEW004 SCT009 BKN012 M02/M03 Q1001 RMK 1ST004 4ST009 6ST012 A2956
RJCK 230317Z 04009KT 3100 R35/2000D -SHSN FEW004 BKN009 M02/M04 Q1002 RMK 1ST004 7ST009 A2959
RJCK 230300Z 03008KT 6000 -SHSN FEW005 BKN015 M02/M04 Q1002
RJCK 230200Z 02009KT 9999 -SHSN FEW010 BKN020 M03/M06 Q1004
RJCK 230100Z 03009KT 9999 FEW015 SCT020 BKN050 M03/M07 Q1006
RJCK 230000Z 03009KT 9999 FEW015 SCT020 BKN060 M04/M09 Q1007
RJCK 222300Z 02009KT 9999 FEW018 BKN050 M05/M11 Q1009
RJCK 222200Z 01009KT 9999 FEW018 BKN060 M06/M13 Q1010
RJCK 222145Z 02008KT 9999 FEW018 BKN050 M06/M13 Q1010 RMK 1ST018 7CU050 A2984
RJCK 221100Z 32004KT 9999 FEW030 BKN160 M08/M15 Q1018
RJCK 221000Z 28004KT 9999 FEW030 BKN160 M07/M17 Q1018
RJCK 220900Z 26004KT 220V290 9999 FEW030 SCT/// M06/M17 Q1018
RJCK 220800Z 22005KT 9999 FEW030 M06/M17 Q1018
RJCK 220700Z 24008KT 200V260 9999 FEW030 SCT/// M05/M17 Q1017
RJCK 220600Z 25010KT 210V290 9999 FEW030 SCT/// M04/M18 Q1017
RJCK 220500Z 23011KT 9999 FEW040 M04/M19 Q1017
RJCK 220400Z 22011KT 190V260 9999 FEW040 M04/M17 Q1017
RJCK 220300Z 22012KT 9999 FEW030 M05/M17 Q1018
RJCK 220200Z 22012KT 180V260 9999 FEW030 SCT050 M05/M17 Q1018
RJCK 220100Z 22012KT 9999 FEW020 SCT040 M06/M17 Q1018
RJCK 220000Z 18007KT 9999 FEW040 M07/M18 Q1019
RJCK 212300Z 22005KT 9999 FEW030 M09/M19 Q1018
RJCK 212200Z 20004KT 9999 FEW030 M11/M19 Q1018
RJCK 212145Z 21005KT 9999 FEW030 M10/M19 Q1018 RMK 1CU030 A3006